Time;durP1;ratioP1;P1;durP2;ratioP2;P2;SDS_P1;SDS_P2;PMS_P1;PMS_P2;Temp;Humidity;BMP_temperature;BMP_pressure;BME280_temperature;BME280_humidity;BME280_pressure;Samples;Min_cycle;Max_cycle;Signal;HPM_P1;HPM_P2
2021/10/30 00:00:34;;;;;;;5.12;4.10;;;;;;;12.71;35.02;96621.02;1791697;77;21043;-82
2021/10/30 00:03:02;;;;;;;23.40;15.53;;;;;;;12.72;35.04;96621.33;1783136;78;21172;-82
2021/10/30 00:05:27;;;;;;;8.43;5.33;;;;;;;12.68;35.44;96614.84;1789099;78;21539;-82
2021/10/30 00:07:53;;;;;;;8.35;5.40;;;;;;;12.67;35.67;96617.65;1795177;77;21457;-81
2021/10/30 00:10:19;;;;;;;6.58;4.30;;;;;;;12.60;35.74;96618.41;1779277;78;21078;-82
2021/10/30 00:12:45;;;;;;;4.85;3.70;;;;;;;12.57;35.98;96644.06;1792328;79;21042;-81
2021/10/30 00:15:11;;;;;;;7.45;4.10;;;;;;;12.52;36.42;96639.38;1776021;78;21104;-82
2021/10/30 00:17:37;;;;;;;4.37;3.98;;;;;;;12.50;35.96;96640.07;1789030;79;21055;-81
2021/10/30 00:20:05;;;;;;;9.75;5.50;;;;;;;12.50;35.70;96619.22;1791163;78;21050;-81
2021/10/30 00:22:31;;;;;;;5.95;4.05;;;;;;;12.49;36.22;96625.42;1798347;78;21517;-81
2021/10/30 00:24:57;;;;;;;6.35;4.10;;;;;;;12.50;35.16;96630.95;1773007;79;21121;-82
2021/10/30 00:27:23;;;;;;;5.10;3.45;;;;;;;12.59;35.57;96612.09;1772341;79;21401;-81
2021/10/30 00:29:49;;;;;;;5.75;3.87;;;;;;;12.61;36.15;96605.69;1745595;80;21040;-82
2021/10/30 00:32:14;;;;;;;6.95;2.85;;;;;;;12.55;36.86;96608.25;1721642;81;21099;-81
2021/10/30 00:34:40;;;;;;;4.65;3.50;;;;;;;12.39;37.23;96626.26;1761430;79;21082;-81
2021/10/30 00:37:06;;;;;;;5.12;4.22;;;;;;;12.33;35.83;96608.75;1809429;78;21084;-82
2021/10/30 00:39:31;;;;;;;6.60;4.78;;;;;;;12.39;36.60;96628.87;1725525;80;21382;-82
2021/10/30 00:41:58;;;;;;;8.73;4.85;;;;;;;12.39;36.63;96621.05;1838925;75;21489;-82
2021/10/30 00:44:24;;;;;;;10.53;5.75;;;;;;;12.43;36.41;96610.55;1852066;76;21125;-82
2021/10/30 00:46:51;;;;;;;9.15;5.90;;;;;;;12.46;36.84;96606.27;1818481;77;21001;-82
2021/10/30 00:49:18;;;;;;;5.37;3.80;;;;;;;12.43;36.42;96607.95;1827779;77;21093;-82
2021/10/30 00:51:45;;;;;;;6.97;4.20;;;;;;;12.41;36.19;96603.42;1820902;77;21731;-81
2021/10/30 00:54:12;;;;;;;7.35;4.47;;;;;;;12.45;36.28;96581.20;1786655;77;21123;-82
2021/10/30 00:56:40;;;;;;;5.12;3.83;;;;;;;12.49;36.28;96592.05;1745383;81;21447;-82
2021/10/30 00:59:09;;;;;;;5.33;3.87;;;;;;;12.52;35.60;96609.41;1796940;77;21134;-82
2021/10/30 01:01:38;;;;;;;5.55;3.67;;;;;;;12.57;35.67;96597.95;1784441;78;21133;-82
2021/10/30 01:04:04;;;;;;;7.42;4.50;;;;;;;12.55;35.58;96580.89;1798139;78;21119;-82
2021/10/30 01:06:31;;;;;;;5.70;3.87;;;;;;;12.52;36.15;96606.00;1789119;79;21578;-82
2021/10/30 01:08:58;;;;;;;5.42;3.60;;;;;;;12.51;35.58;96592.16;1789584;78;21081;-81
2021/10/30 01:11:24;;;;;;;6.50;3.80;;;;;;;12.53;36.13;96580.27;1782043;79;21045;-82
2021/10/30 01:13:50;;;;;;;4.33;3.27;;;;;;;12.46;37.37;96585.41;1787389;77;21063;-82
2021/10/30 01:16:21;;;;;;;7.65;3.67;;;;;;;12.33;35.74;96593.92;1792801;78;21131;-82
2021/10/30 01:18:47;;;;;;;4.10;3.60;;;;;;;12.36;36.42;96599.75;1794636;78;21079;-82
2021/10/30 01:21:14;;;;;;;3.87;3.22;;;;;;;12.33;37.06;96600.43;1808471;77;21106;-82
2021/10/30 01:23:40;;;;;;;8.60;5.37;;;;;;;12.28;37.21;96600.69;1829190;77;21034;-81
2021/10/30 01:26:06;;;;;;;4.75;3.60;;;;;;;12.27;36.49;96605.59;1821008;76;21115;-82
2021/10/30 01:28:35;;;;;;;4.90;3.35;;;;;;;12.27;36.13;96589.47;1838822;76;21044;-82
2021/10/30 01:31:00;;;;;;;5.08;3.37;;;;;;;12.33;36.94;96598.33;1847843;77;21047;-81
2021/10/30 01:33:26;;;;;;;4.75;3.55;;;;;;;12.36;36.54;96586.72;1790518;78;21557;-81
2021/10/30 01:35:52;;;;;;;5.58;3.27;;;;;;;12.36;36.60;96600.55;1807729;78;21030;-82
2021/10/30 01:38:17;;;;;;;4.33;3.33;;;;;;;12.32;37.40;96600.63;1796748;75;21095;-82
2021/10/30 01:40:47;;;;;;;5.25;3.22;;;;;;;12.25;37.30;96599.77;1807800;77;21041;-81
2021/10/30 01:43:14;;;;;;;6.97;4.33;;;;;;;12.18;37.22;96594.48;1804292;77;21441;-82
2021/10/30 01:45:41;;;;;;;5.90;3.50;;;;;;;12.15;37.51;96603.17;1822816;77;21144;-82
2021/10/30 01:48:07;;;;;;;9.20;5.15;;;;;;;12.13;37.44;96601.25;1806396;77;21107;-82
2021/10/30 01:50:33;;;;;;;5.62;3.70;;;;;;;12.16;37.32;96595.16;1769405;79;21176;-82
2021/10/30 01:53:01;;;;;;;4.72;3.25;;;;;;;12.15;37.44;96601.37;1792007;78;21043;-81
2021/10/30 01:55:28;;;;;;;4.08;2.80;;;;;;;12.13;37.41;96586.42;1792530;79;21031;-82
2021/10/30 01:57:54;;;;;;;6.22;3.83;;;;;;;12.11;37.21;96591.02;1788966;78;21131;-81
2021/10/30 02:00:19;;;;;;;5.87;3.55;;;;;;;12.20;37.19;96579.50;1793162;78;21060;-81
2021/10/30 02:02:45;;;;;;;5.50;3.87;;;;;;;12.25;37.34;96582.34;1777012;78;21074;-81
2021/10/30 02:05:12;;;;;;;7.83;4.55;;;;;;;12.24;36.72;96565.09;1782722;78;21127;-81
2021/10/30 02:07:37;;;;;;;4.00;3.17;;;;;;;12.28;37.10;96574.14;1745664;79;21037;-81
2021/10/30 02:10:05;;;;;;;5.90;3.77;;;;;;;12.31;37.06;96557.33;1765951;79;21060;-82
2021/10/30 02:12:31;;;;;;;7.72;4.67;;;;;;;12.33;37.29;96563.95;1778186;78;21438;-82
2021/10/30 02:14:57;;;;;;;5.22;3.37;;;;;;;12.33;37.02;96556.14;1785990;79;21663;-81
2021/10/30 02:17:23;;;;;;;5.20;3.70;;;;;;;12.36;37.00;96557.55;1779011;79;21139;-82
2021/10/30 02:19:49;;;;;;;6.62;4.25;;;;;;;12.39;37.15;96566.33;1784825;78;21741;-82
2021/10/30 02:22:15;;;;;;;6.10;4.05;;;;;;;12.42;36.99;96581.58;1778121;77;21055;-81
2021/10/30 02:24:41;;;;;;;7.15;4.67;;;;;;;12.47;37.08;96569.28;1767090;78;21094;-81
2021/10/30 02:27:07;;;;;;;4.65;3.30;;;;;;;12.49;36.62;96547.73;1805762;78;21151;-81
2021/10/30 02:29:33;;;;;;;6.20;4.00;;;;;;;12.50;37.10;96554.56;1793687;77;21158;-82
2021/10/30 02:32:00;;;;;;;6.20;3.52;;;;;;;12.49;36.83;96558.97;1824470;77;21477;-82
2021/10/30 02:34:25;;;;;;;7.72;4.22;;;;;;;12.54;36.28;96548.00;1842319;76;21087;-81
2021/10/30 02:36:51;;;;;;;7.37;4.60;;;;;;;12.53;36.92;96553.70;1821829;77;21142;-82
2021/10/30 02:39:17;;;;;;;4.62;3.58;;;;;;;12.51;36.21;96534.02;1825553;77;21025;-82
2021/10/30 02:41:43;;;;;;;5.50;3.85;;;;;;;12.53;36.91;96556.81;1814694;77;21059;-81
2021/10/30 02:44:08;;;;;;;5.55;3.75;;;;;;;12.52;36.56;96531.22;1816320;77;21079;-82
2021/10/30 02:46:35;;;;;;;5.00;4.35;;;;;;;12.51;36.30;96554.38;1755459;79;21106;-82
2021/10/30 02:49:00;;;;;;;4.95;3.37;;;;;;;12.53;36.21;96542.48;1798136;77;21379;-81
2021/10/30 02:51:26;;;;;;;7.28;4.12;;;;;;;12.52;35.96;96522.09;1772549;77;21038;-81
2021/10/30 02:53:53;;;;;;;6.75;4.25;;;;;;;12.54;36.40;96529.75;1792196;77;21046;-81
2021/10/30 02:56:18;;;;;;;5.72;3.92;;;;;;;12.56;36.15;96519.44;1793409;79;21137;-82
2021/10/30 02:58:44;;;;;;;5.55;3.58;;;;;;;12.60;35.90;96518.55;1743690;78;21061;-81
2021/10/30 03:01:10;;;;;;;4.67;3.87;;;;;;;12.59;36.58;96523.46;1813782;77;21143;-81
2021/10/30 03:03:35;;;;;;;6.03;3.77;;;;;;;12.56;36.01;96516.03;1780167;80;21111;-81
2021/10/30 03:06:01;;;;;;;5.53;3.67;;;;;;;12.58;35.48;96503.11;1823431;76;21234;-81
2021/10/30 03:08:27;;;;;;;5.78;3.67;;;;;;;12.52;35.94;96528.61;1789844;79;21385;-81
2021/10/30 03:10:53;;;;;;;5.00;3.33;;;;;;;12.58;36.16;96511.43;1814395;77;21015;-82
2021/10/30 03:13:19;;;;;;;5.50;3.52;;;;;;;12.59;36.21;96515.14;1808946;76;21029;-81
2021/10/30 03:15:44;;;;;;;4.22;3.55;;;;;;;12.63;35.43;96509.05;1826961;77;21181;-81
2021/10/30 03:18:11;;;;;;;5.30;3.42;;;;;;;12.65;35.32;96525.80;1793958;77;21054;-81
2021/10/30 03:20:37;;;;;;;5.90;3.60;;;;;;;12.67;35.59;96519.89;1783549;78;21130;-81
2021/10/30 03:23:03;;;;;;;4.37;2.98;;;;;;;12.65;34.87;96527.09;1782872;79;21182;-82
2021/10/30 03:25:30;;;;;;;4.08;3.70;;;;;;;12.67;36.04;96536.83;1800928;77;21164;-82
2021/10/30 03:27:56;;;;;;;5.47;3.83;;;;;;;12.60;36.02;96544.12;1790033;77;21066;-81
2021/10/30 03:30:21;;;;;;;7.75;3.95;;;;;;;12.58;36.20;96547.42;1776733;79;21481;-81
2021/10/30 03:32:47;;;;;;;4.70;3.27;;;;;;;12.55;35.93;96548.30;1786559;78;21430;-82
2021/10/30 03:35:13;;;;;;;4.97;3.30;;;;;;;12.53;35.79;96571.95;1790819;78;21147;-81
2021/10/30 03:37:39;;;;;;;4.58;3.30;;;;;;;12.56;36.15;96554.63;1783485;78;21055;-82
2021/10/30 03:40:07;;;;;;;3.60;2.80;;;;;;;12.54;36.89;96551.41;1775012;79;21066;-82
2021/10/30 03:42:34;;;;;;;4.90;3.45;;;;;;;12.48;35.88;96554.75;1768839;78;21064;-81
2021/10/30 03:44:59;;;;;;;4.97;3.22;;;;;;;12.48;36.36;96580.81;1786407;78;21393;-82
2021/10/30 03:47:26;;;;;;;5.30;3.40;;;;;;;12.49;36.18;96565.98;1799325;77;21083;-82
2021/10/30 03:49:51;;;;;;;3.72;2.90;;;;;;;12.51;35.82;96564.80;1784799;78;21127;-81
2021/10/30 03:52:17;;;;;;;5.58;3.50;;;;;;;12.55;35.67;96564.75;1798270;77;21019;-81
2021/10/30 03:54:43;;;;;;;4.78;3.90;;;;;;;12.56;35.96;96546.00;1791139;78;21149;-81
2021/10/30 03:57:09;;;;;;;5.53;3.92;;;;;;;12.57;36.07;96571.08;1766521;79;21144;-81
2021/10/30 03:59:35;;;;;;;3.90;3.25;;;;;;;12.58;36.10;96559.16;1786074;77;21578;-81
2021/10/30 04:02:03;;;;;;;4.65;4.00;;;;;;;12.57;35.95;96587.52;1757459;77;21135;-81
2021/10/30 04:04:29;;;;;;;4.22;3.58;;;;;;;12.57;36.35;96565.36;1779381;78;22881;-81
2021/10/30 04:06:54;;;;;;;5.05;3.77;;;;;;;12.54;35.94;96556.63;1776996;78;21107;-81
2021/10/30 04:09:21;;;;;;;4.83;3.35;;;;;;;12.54;36.50;96569.66;1810843;77;21162;-82
2021/10/30 04:11:49;;;;;;;4.78;3.25;;;;;;;12.53;35.81;96554.20;1829904;77;21457;-82
2021/10/30 04:14:15;;;;;;;5.20;3.98;;;;;;;12.57;36.05;96571.08;1790117;77;21058;-82
2021/10/30 04:16:42;;;;;;;6.97;4.42;;;;;;;12.60;35.97;96576.70;1799223;78;21059;-82
2021/10/30 04:19:08;;;;;;;5.55;4.00;;;;;;;12.67;36.24;96569.42;1749733;80;21438;-82
2021/10/30 04:21:33;;;;;;;5.05;4.17;;;;;;;12.68;35.77;96564.52;1789728;78;21015;-82
2021/10/30 04:23:59;;;;;;;5.65;3.67;;;;;;;12.67;35.82;96566.31;1764057;79;21111;-81
2021/10/30 04:26:26;;;;;;;4.72;3.08;;;;;;;12.67;35.46;96543.35;1793719;77;21071;-82
2021/10/30 04:28:52;;;;;;;3.52;2.92;;;;;;;12.69;35.46;96545.27;1773715;77;21119;-81
2021/10/30 04:31:26;;;;;;;3.87;2.80;;;;;;;12.69;35.58;96548.70;1793588;78;21115;-82
2021/10/30 04:33:49;;;;;;;4.92;3.77;;;;;;;12.70;35.19;96531.27;1793352;79;21378;-82
2021/10/30 04:36:16;;;;;;;3.33;2.87;;;;;;;12.75;35.52;96545.83;1797578;78;21060;-82
2021/10/30 04:38:42;;;;;;;4.05;3.65;;;;;;;12.79;35.58;96549.16;1774057;78;21200;-82
2021/10/30 04:41:08;;;;;;;5.45;3.42;;;;;;;12.78;35.67;96521.97;1761859;79;21112;-82
2021/10/30 04:43:34;;;;;;;5.15;4.42;;;;;;;12.76;35.69;96530.48;1776227;79;21059;-82
2021/10/30 04:45:59;;;;;;;4.25;3.20;;;;;;;12.74;35.52;96529.88;1746488;80;21008;-82
2021/10/30 04:48:25;;;;;;;4.78;4.03;;;;;;;12.72;35.88;96516.23;1784686;79;21501;-82
2021/10/30 04:50:51;;;;;;;5.22;3.42;;;;;;;12.75;35.17;96515.34;1793570;78;21008;-82
2021/10/30 04:53:16;;;;;;;5.45;4.03;;;;;;;12.76;35.62;96510.94;1786595;79;20979;-82
2021/10/30 04:55:42;;;;;;;5.05;3.83;;;;;;;12.76;35.85;96499.20;1788755;79;21115;-82
2021/10/30 04:58:09;;;;;;;5.78;3.95;;;;;;;12.75;35.83;96495.79;1771700;80;21067;-81
2021/10/30 05:00:35;;;;;;;5.40;4.40;;;;;;;12.76;35.85;96508.33;1788181;78;21012;-82
2021/10/30 05:03:01;;;;;;;4.33;3.22;;;;;;;12.75;36.06;96501.00;1789219;79;21414;-82
2021/10/30 05:05:26;;;;;;;6.37;3.67;;;;;;;12.75;35.91;96502.80;1785573;79;21212;-82
2021/10/30 05:07:52;;;;;;;4.65;3.67;;;;;;;12.77;36.04;96488.58;1797599;78;21158;-82
2021/10/30 05:10:18;;;;;;;7.65;4.30;;;;;;;12.79;35.84;96494.90;1791257;77;21043;-81
2021/10/30 05:12:44;;;;;;;4.75;3.98;;;;;;;12.81;35.83;96479.86;1772373;78;21234;-82
2021/10/30 05:15:10;;;;;;;3.62;3.20;;;;;;;12.84;36.17;96470.34;1788905;78;21115;-82
2021/10/30 05:17:36;;;;;;;4.83;3.70;;;;;;;12.85;35.93;96464.13;1773071;78;21134;-81
2021/10/30 05:20:04;;;;;;;4.35;3.30;;;;;;;12.84;36.07;96464.63;1797500;78;21154;-82
2021/10/30 05:22:30;;;;;;;5.58;3.67;;;;;;;12.85;35.69;96474.56;1786232;79;21522;-82
2021/10/30 05:24:55;;;;;;;7.33;3.72;;;;;;;12.88;36.21;96480.72;1781951;79;21060;-82
2021/10/30 05:27:21;;;;;;;5.70;3.20;;;;;;;12.88;35.87;96466.38;1734059;81;21015;-82
2021/10/30 05:29:47;;;;;;;6.22;4.45;;;;;;;12.89;35.71;96461.46;1800968;78;21011;-82
2021/10/30 05:32:13;;;;;;;6.12;3.42;;;;;;;12.90;35.97;96462.56;1795074;78;21098;-82
2021/10/30 05:34:39;;;;;;;4.25;3.83;;;;;;;12.89;35.95;96450.53;1795485;78;21493;-82
2021/10/30 05:37:05;;;;;;;4.65;3.75;;;;;;;12.89;35.73;96454.44;1768530;80;21485;-81
2021/10/30 05:39:31;;;;;;;4.85;3.87;;;;;;;12.90;36.01;96462.56;1772938;78;21055;-82
2021/10/30 05:41:57;;;;;;;7.92;4.40;;;;;;;12.89;35.78;96438.80;1799944;78;21144;-82
2021/10/30 05:44:23;;;;;;;5.45;3.92;;;;;;;12.92;35.81;96442.81;1791797;78;21056;-82
2021/10/30 05:46:50;;;;;;;5.92;3.80;;;;;;;12.91;36.11;96424.25;1783098;78;21114;-82
2021/10/30 05:49:17;;;;;;;5.37;3.90;;;;;;;12.92;36.08;96431.08;1799736;78;21564;-82
2021/10/30 05:51:43;;;;;;;5.90;3.83;;;;;;;12.95;36.17;96455.45;1777376;78;21177;-82
2021/10/30 05:54:09;;;;;;;6.42;3.67;;;;;;;12.98;36.22;96442.52;1796678;77;21140;-82
2021/10/30 05:56:35;;;;;;;4.35;3.83;;;;;;;12.97;36.21;96435.20;1796625;76;21043;-82
2021/10/30 05:59:00;;;;;;;8.83;4.90;;;;;;;12.93;35.93;96450.44;1800722;77;21430;-82
2021/10/30 06:01:28;;;;;;;5.58;4.05;;;;;;;12.96;36.31;96468.80;1779476;79;21008;-82
2021/10/30 06:03:54;;;;;;;7.25;3.95;;;;;;;13.00;35.47;96471.82;1799288;76;21142;-82
2021/10/30 06:06:20;;;;;;;7.47;3.17;;;;;;;13.05;36.39;96475.98;1799964;77;21119;-81
2021/10/30 06:08:46;;;;;;;5.62;3.85;;;;;;;13.02;36.04;96460.22;1789849;75;21563;-82
2021/10/30 06:11:12;;;;;;;5.90;4.20;;;;;;;13.04;36.44;96473.87;1810293;77;21088;-82
2021/10/30 06:13:38;;;;;;;7.22;4.97;;;;;;;13.05;35.83;96490.32;1804204;77;21061;-82
2021/10/30 06:16:04;;;;;;;4.92;4.00;;;;;;;13.06;36.61;96466.65;1794990;78;21476;-82
2021/10/30 06:18:30;;;;;;;5.62;3.67;;;;;;;13.01;36.56;96485.97;1809290;75;21448;-82
2021/10/30 06:20:56;;;;;;;4.53;3.37;;;;;;;12.98;37.21;96496.80;1799525;77;21094;-82
2021/10/30 06:23:21;;;;;;;5.95;4.12;;;;;;;12.96;36.63;96519.66;1804045;77;21125;-82
2021/10/30 06:25:47;;;;;;;6.40;4.22;;;;;;;12.94;36.90;96509.92;1801832;77;21204;-82
2021/10/30 06:28:13;;;;;;;5.15;3.77;;;;;;;12.91;37.53;96539.00;1752813;79;21091;-82
2021/10/30 06:30:39;;;;;;;5.12;3.77;;;;;;;12.89;37.76;96498.78;1768360;79;21385;-82
2021/10/30 06:33:05;;;;;;;5.53;3.90;;;;;;;12.86;37.09;96541.39;1765962;79;21034;-82
2021/10/30 06:35:30;;;;;;;4.72;3.52;;;;;;;12.87;37.18;96529.96;1799732;79;21556;-82
2021/10/30 06:37:57;;;;;;;6.00;4.20;;;;;;;12.89;37.17;96565.28;1780138;78;21071;-82
2021/10/30 06:40:23;;;;;;;5.53;4.45;;;;;;;12.86;37.55;96533.56;1818246;77;21138;-82
2021/10/30 06:42:49;;;;;;;8.68;5.67;;;;;;;12.81;37.37;96544.55;1813064;76;21099;-82
2021/10/30 06:45:15;;;;;;;75.72;38.80;;;;;;;12.79;38.07;96534.01;1798043;78;21499;-82
2021/10/30 06:47:40;;;;;;;32.25;18.20;;;;;;;12.73;37.62;96546.02;1778282;78;21078;-82
2021/10/30 06:50:07;;;;;;;26.12;14.40;;;;;;;12.71;38.17;96545.91;1800726;76;21092;-82
2021/10/30 06:52:37;;;;;;;14.63;8.15;;;;;;;12.63;38.38;96547.64;1824890;78;21481;-82
2021/10/30 06:55:06;;;;;;;25.40;15.05;;;;;;;12.56;38.40;96536.38;1818822;77;21058;-82
2021/10/30 06:57:31;;;;;;;5.83;4.45;;;;;;;12.58;38.31;96550.53;1810376;78;21591;-82
2021/10/30 06:59:57;;;;;;;5.90;4.40;;;;;;;12.58;38.34;96550.03;1802715;77;21067;-82
2021/10/30 07:02:23;;;;;;;5.58;4.10;;;;;;;12.67;38.75;96552.47;1766885;77;21066;-82
2021/10/30 07:04:49;;;;;;;5.35;4.12;;;;;;;12.66;38.56;96545.16;1845710;77;20998;-81
2021/10/30 07:07:14;;;;;;;4.03;3.45;;;;;;;12.65;38.55;96574.02;1807176;78;21087;-82
2021/10/30 07:09:40;;;;;;;5.22;3.67;;;;;;;12.69;38.70;96557.83;1799391;78;21213;-82
2021/10/30 07:12:07;;;;;;;4.53;3.75;;;;;;;12.71;38.58;96570.17;1820500;75;21066;-82
2021/10/30 07:14:33;;;;;;;5.53;4.33;;;;;;;12.71;38.29;96568.06;1778542;79;21043;-82
2021/10/30 07:16:59;;;;;;;6.00;4.37;;;;;;;12.76;38.78;96561.77;1804730;78;21048;-82
2021/10/30 07:19:25;;;;;;;5.90;4.95;;;;;;;12.77;38.80;96556.86;1826282;77;21139;-82
2021/10/30 07:21:52;;;;;;;6.15;3.87;;;;;;;12.76;39.10;96549.55;1808087;77;21119;-82
2021/10/30 07:24:19;;;;;;;6.05;4.25;;;;;;;12.77;38.76;96549.84;1777968;78;21130;-82
2021/10/30 07:26:45;;;;;;;5.40;4.05;;;;;;;12.79;39.40;96544.44;1837224;75;21099;-82
2021/10/30 07:29:10;;;;;;;4.10;3.70;;;;;;;12.82;38.83;96563.61;1846373;75;21113;-82
2021/10/30 07:31:36;;;;;;;5.67;4.42;;;;;;;12.85;38.65;96558.00;1852727;76;21442;-82
2021/10/30 07:34:02;;;;;;;8.15;5.58;;;;;;;12.89;38.73;96576.20;1848998;75;21013;-82
2021/10/30 07:36:28;;;;;;;5.42;4.12;;;;;;;12.92;38.69;96565.39;1801862;77;21055;-82
2021/10/30 07:38:55;;;;;;;6.45;4.45;;;;;;;12.92;38.67;96562.28;1837146;77;21147;-82
2021/10/30 07:41:20;;;;;;;7.37;4.75;;;;;;;12.94;38.68;96573.82;1798559;78;21146;-82
2021/10/30 07:43:46;;;;;;;5.65;3.87;;;;;;;13.00;38.90;96573.05;1838795;77;21113;-82
2021/10/30 07:46:12;;;;;;;6.60;4.30;;;;;;;13.05;38.17;96545.10;1850706;77;21477;-82
2021/10/30 07:48:39;;;;;;;24.63;10.50;;;;;;;13.11;38.85;96556.06;1805299;77;21132;-82
2021/10/30 07:53:30;;;;;;;11.95;6.20;;;;;;;13.21;38.38;96541.70;1773380;78;21218;-82
2021/10/30 07:55:56;;;;;;;6.70;4.75;;;;;;;13.31;39.83;96562.20;1771556;78;21132;-82
2021/10/30 07:58:22;;;;;;;6.78;5.15;;;;;;;13.36;39.25;96561.14;1788983;78;21163;-82
2021/10/30 08:00:48;;;;;;;10.32;5.75;;;;;;;13.39;38.91;96559.44;1800056;77;21000;-82
2021/10/30 08:03:14;;;;;;;10.43;5.25;;;;;;;13.43;39.75;96555.94;1785932;77;21586;-82
2021/10/30 08:05:40;;;;;;;7.10;5.10;;;;;;;13.45;39.66;96554.73;1795699;77;21406;-81
2021/10/30 08:08:06;;;;;;;8.70;4.92;;;;;;;13.50;39.48;96571.94;1808200;76;21062;-82
2021/10/30 08:10:32;;;;;;;15.35;6.83;;;;;;;13.54;39.11;96538.41;1848053;77;21161;-81
2021/10/30 08:12:58;;;;;;;8.28;4.95;;;;;;;13.59;39.08;96540.42;1807311;78;21150;-82
2021/10/30 08:15:24;;;;;;;7.65;4.95;;;;;;;13.63;39.76;96537.22;1807746;77;21470;-82
2021/10/30 08:17:52;;;;;;;7.12;4.53;;;;;;;13.63;39.81;96552.08;1820750;77;21409;-82
2021/10/30 08:20:18;;;;;;;7.03;4.60;;;;;;;13.65;39.46;96553.98;1793009;76;21145;-83
2021/10/30 08:22:46;;;;;;;21.90;10.23;;;;;;;13.72;40.80;96550.91;1810907;76;21071;-82
2021/10/30 08:25:11;;;;;;;18.27;9.38;;;;;;;13.78;39.75;96552.22;1800509;78;21031;-82
2021/10/30 08:27:38;;;;;;;19.02;10.03;;;;;;;13.84;40.41;96551.95;1835505;75;21024;-82
2021/10/30 08:30:05;;;;;;;16.50;8.70;;;;;;;13.87;40.38;96559.39;1827724;77;21029;-82
2021/10/30 08:32:33;;;;;;;26.73;12.53;;;;;;;13.90;40.32;96559.49;1826089;77;21135;-82
2021/10/30 08:34:58;;;;;;;8.28;4.95;;;;;;;13.94;39.68;96547.14;1840756;75;21122;-82
2021/10/30 08:37:24;;;;;;;7.10;5.53;;;;;;;14.05;40.00;96546.56;1821652;77;21047;-82
2021/10/30 08:39:50;;;;;;;11.80;6.85;;;;;;;14.10;40.10;96536.81;1797779;77;21061;-82
2021/10/30 08:42:16;;;;;;;9.43;5.97;;;;;;;14.15;40.80;96523.94;1827863;77;21099;-82
2021/10/30 08:44:42;;;;;;;9.98;6.95;;;;;;;14.20;40.75;96523.36;1844726;77;21129;-82
2021/10/30 08:47:08;;;;;;;13.60;7.90;;;;;;;14.24;40.26;96521.44;1777487;78;21136;-82
2021/10/30 08:49:36;;;;;;;7.45;5.53;;;;;;;14.28;40.95;96521.33;1722409;80;21549;-82
2021/10/30 08:52:04;;;;;;;5.47;4.85;;;;;;;14.33;39.96;96512.41;1773932;79;21098;-83
2021/10/30 08:54:29;;;;;;;6.05;4.70;;;;;;;14.37;40.93;96509.69;1823446;77;21452;-82
2021/10/30 08:56:55;;;;;;;8.65;4.97;;;;;;;14.40;40.51;96524.16;1761081;78;21093;-82
2021/10/30 09:01:52;;;;;;;6.83;4.75;;;;;;;14.52;39.95;96521.27;1753446;78;21201;-82
2021/10/30 09:04:18;;;;;;;6.40;4.40;;;;;;;14.62;39.04;96519.53;1760278;80;21176;-82
2021/10/30 09:06:57;;;;;;;7.42;5.55;;;;;;;14.69;39.39;96525.57;1772366;78;21509;-82
2021/10/30 09:09:23;;;;;;;6.87;5.08;;;;;;;14.76;39.60;96536.02;1751418;79;21019;-82
2021/10/30 09:12:00;;;;;;;8.73;5.92;;;;;;;14.82;40.14;96530.79;1733240;80;21260;-82
2021/10/30 09:17:18;;;;;;;8.00;5.20;;;;;;;14.91;40.15;96508.61;1782357;78;21116;-82
2021/10/30 09:19:54;;;;;;;5.78;4.70;;;;;;;14.96;39.74;96523.18;1764771;79;21574;-82
2021/10/30 09:22:23;;;;;;;7.42;5.00;;;;;;;14.99;39.60;96518.87;1747012;79;21116;-82
2021/10/30 09:25:03;;;;;;;6.67;4.97;;;;;;;15.05;40.37;96515.13;1827182;77;21066;-82
2021/10/30 09:29:58;;;;;;;6.67;5.20;;;;;;;15.10;39.09;96527.08;1822124;77;21067;-82
2021/10/30 09:32:25;;;;;;;6.58;4.80;;;;;;;15.16;39.97;96511.88;1797076;78;21516;-82
2021/10/30 09:34:51;;;;;;;6.53;4.80;;;;;;;15.18;40.23;96509.34;1802427;78;21016;-82
2021/10/30 09:37:21;;;;;;;8.75;5.62;;;;;;;15.27;39.58;96543.92;1824280;77;21850;-82
2021/10/30 09:39:47;;;;;;;8.55;5.17;;;;;;;15.32;39.00;96514.02;1822104;76;21077;-82
2021/10/30 09:42:26;;;;;;;6.17;4.55;;;;;;;15.40;39.22;96532.09;1821688;77;21015;-82
2021/10/30 09:45:07;;;;;;;6.42;4.83;;;;;;;15.49;39.23;96536.10;1819564;76;21002;-82
2021/10/30 09:47:32;;;;;;;6.60;5.10;;;;;;;15.53;39.09;96520.27;1801503;77;21059;-82
2021/10/30 09:49:58;;;;;;;8.20;5.35;;;;;;;15.59;38.13;96514.72;1797434;78;21110;-82
2021/10/30 09:52:29;;;;;;;7.60;5.30;;;;;;;15.64;39.19;96529.83;1798170;78;20986;-82
2021/10/30 09:54:55;;;;;;;8.40;5.53;;;;;;;15.68;38.90;96529.19;1797833;77;21127;-83
2021/10/30 09:57:29;;;;;;;7.65;5.50;;;;;;;15.76;38.23;96515.02;1778633;78;21478;-82
2021/10/30 10:00:01;;;;;;;8.73;5.53;;;;;;;15.80;37.91;96524.89;1784420;79;21051;-82
2021/10/30 10:02:28;;;;;;;6.10;4.67;;;;;;;15.84;38.26;96520.03;1776053;79;21055;-82
2021/10/30 10:04:55;;;;;;;6.72;4.97;;;;;;;15.94;37.86;96515.61;1788986;78;21102;-82
2021/10/30 10:07:25;;;;;;;6.55;5.45;;;;;;;15.98;37.95;96541.20;1773406;78;21486;-82
2021/10/30 10:09:51;;;;;;;8.28;6.30;;;;;;;16.00;38.34;96530.00;1796870;77;21458;-82
2021/10/30 10:12:17;;;;;;;7.78;5.70;;;;;;;16.03;38.87;96509.11;1811968;77;21125;-83
2021/10/30 10:14:45;;;;;;;6.45;4.50;;;;;;;16.07;38.45;96509.78;1795236;77;21058;-82
2021/10/30 10:17:11;;;;;;;5.30;4.08;;;;;;;16.10;38.34;96520.34;1809378;77;21142;-82
2021/10/30 10:19:37;;;;;;;6.55;5.10;;;;;;;16.15;38.06;96534.95;1797980;78;21090;-82
2021/10/30 10:22:04;;;;;;;5.72;4.58;;;;;;;16.18;38.26;96519.59;1803756;77;21059;-83
2021/10/30 10:24:32;;;;;;;6.62;5.17;;;;;;;16.26;38.70;96508.02;1801425;77;21078;-82
2021/10/30 10:27:01;;;;;;;6.22;4.62;;;;;;;16.33;37.59;96518.47;1839003;76;21142;-82
2021/10/30 10:29:37;;;;;;;5.90;4.62;;;;;;;16.35;37.74;96521.67;1831698;77;21576;-82
2021/10/30 10:32:06;;;;;;;5.28;4.50;;;;;;;16.39;38.57;96513.16;1817049;77;21112;-82
2021/10/30 10:34:37;;;;;;;8.33;4.95;;;;;;;16.45;38.04;96506.27;1831700;77;21079;-83
2021/10/30 10:37:17;;;;;;;5.53;4.62;;;;;;;16.51;38.65;96510.13;1835318;77;21145;-83
2021/10/30 10:39:44;;;;;;;5.42;4.60;;;;;;;16.58;38.03;96512.69;1795862;78;21102;-82
2021/10/30 10:42:12;;;;;;;6.62;4.53;;;;;;;16.63;38.29;96517.30;1791527;78;21095;-82
2021/10/30 10:44:47;;;;;;;6.20;4.47;;;;;;;16.65;38.01;96504.27;1787593;78;21409;-83
2021/10/30 10:47:41;;;;;;;5.83;4.25;;;;;;;16.70;37.93;96522.80;1805389;77;21098;-82
2021/10/30 10:50:22;;;;;;;6.40;5.05;;;;;;;16.73;38.14;96523.67;1795361;78;21441;-83
2021/10/30 10:55:21;;;;;;;6.20;5.08;;;;;;;16.76;38.40;96511.46;1796332;78;21078;-82
2021/10/30 10:57:48;;;;;;;9.50;4.92;;;;;;;16.79;38.49;96522.03;1783212;78;21025;-83
2021/10/30 11:00:19;;;;;;;7.35;4.80;;;;;;;16.84;38.18;96512.19;1766283;77;21494;-82
2021/10/30 11:02:55;;;;;;;9.78;4.45;;;;;;;16.89;37.91;96503.94;1807053;77;21054;-82
2021/10/30 11:05:32;;;;;;;8.33;5.30;;;;;;;16.93;37.64;96524.81;1817592;78;21162;-83
2021/10/30 11:10:32;;;;;;;5.15;4.40;;;;;;;17.03;38.12;96504.60;1808258;77;21122;-83
2021/10/30 11:13:02;;;;;;;;;;;;;;;17.05;38.04;96495.99;1801867;78;21067;-83
2021/10/30 11:15:30;;;;;;;5.37;4.60;;;;;;;17.13;37.78;96510.66;1815157;77;20181;-83
2021/10/30 11:20:44;;;;;;;5.87;4.35;;;;;;;17.19;37.33;96511.89;1734010;79;21219;-82
2021/10/30 11:23:15;;;;;;;5.10;4.50;;;;;;;17.25;37.53;96497.09;1769086;79;21159;-83
2021/10/30 11:25:41;;;;;;;6.12;4.17;;;;;;;17.29;37.07;96483.81;1783737;79;21133;-82
2021/10/30 11:28:07;;;;;;;4.83;4.12;;;;;;;17.37;37.38;96502.67;1790171;78;21201;-83
2021/10/30 11:30:40;;;;;;;5.30;4.17;;;;;;;17.40;37.19;96491.72;1797447;78;21484;-83
2021/10/30 11:35:32;;;;;;;7.33;5.42;;;;;;;17.44;37.10;96487.36;1759728;77;21094;-82
2021/10/30 11:38:09;;;;;;;7.17;4.90;;;;;;;17.45;37.48;96500.78;1752761;81;21367;-83
2021/10/30 11:40:59;;;;;;;5.00;4.03;;;;;;;17.47;37.45;96484.28;1782012;77;21075;-83
2021/10/30 11:43:27;;;;;;;5.95;4.55;;;;;;;17.44;37.03;96486.85;1774384;78;21079;-83
2021/10/30 11:46:02;;;;;;;5.85;4.35;;;;;;;17.45;37.46;96485.02;1776528;78;21143;-83
2021/10/30 11:48:45;;;;;;;6.50;4.25;;;;;;;17.47;36.55;96482.97;1747441;80;21045;-82
2021/10/30 11:51:11;;;;;;;7.55;3.67;;;;;;;17.49;37.23;96475.67;1783735;79;21082;-82